createdAt,value
2023-08-02T00:01:39.934Z,100.00
2023-08-02T00:06:44.365Z,100.00
2023-08-02T00:11:48.288Z,100.00
2023-08-02T00:16:53.415Z,100.00
2023-08-02T00:21:57.068Z,100.00
2023-08-02T00:27:00.717Z,100.00
2023-08-02T00:32:06.410Z,100.00
2023-08-02T00:37:10.881Z,100.00
2023-08-02T00:42:14.543Z,100.00
2023-08-02T00:47:20.256Z,100.00
2023-08-02T00:52:24.402Z,100.00
2023-08-02T00:57:28.237Z,100.00
2023-08-02T01:02:33.338Z,100.00
2023-08-02T01:07:44.611Z,100.00
2023-08-02T01:12:51.578Z,100.00
2023-08-02T01:17:57.555Z,100.00
2023-08-02T01:23:02.659Z,100.00
2023-08-02T01:28:08.291Z,100.00
2023-08-02T01:33:12.657Z,100.00
2023-08-02T01:38:17.776Z,100.00
2023-08-02T01:43:21.464Z,100.00
2023-08-02T01:48:27.292Z,100.00
2023-08-02T01:53:32.340Z,100.00
2023-08-02T01:58:35.970Z,100.00
2023-08-02T02:03:39.867Z,100.00
2023-08-02T02:08:44.930Z,100.00
2023-08-02T02:13:48.850Z,100.00
2023-08-02T02:18:52.603Z,100.00
2023-08-02T02:23:57.615Z,100.00
2023-08-02T02:29:01.350Z,100.00
2023-08-02T02:34:04.979Z,100.00
2023-08-02T02:39:12.494Z,100.00
2023-08-02T02:44:16.125Z,100.00
2023-08-02T02:49:19.870Z,100.00
2023-08-02T02:54:25.259Z,100.00
2023-08-02T02:59:29.212Z,100.00
2023-08-02T03:10:21.747Z,100.00
2023-08-02T03:15:26.092Z,100.00
2023-08-02T03:20:30.938Z,100.00
2023-08-02T03:25:36.032Z,100.00
2023-08-02T03:30:39.733Z,100.00
2023-08-02T03:35:43.531Z,100.00
2023-08-02T03:40:48.656Z,100.00
2023-08-02T03:45:52.335Z,100.00
2023-08-02T03:50:56.088Z,100.00
2023-08-02T03:56:01.119Z,100.00
2023-08-02T04:01:04.933Z,100.00
2023-08-02T04:06:08.859Z,100.00
2023-08-02T04:11:14.036Z,100.00
2023-08-02T04:16:17.675Z,100.00
2023-08-02T04:21:21.821Z,100.00
2023-08-02T04:26:27.020Z,100.00
2023-08-02T04:31:30.761Z,100.00
2023-08-02T04:36:34.564Z,100.00
2023-08-02T04:41:39.679Z,100.00
2023-08-02T04:46:43.798Z,100.00
2023-08-02T04:51:47.684Z,100.00
2023-08-02T04:56:52.849Z,100.00
2023-08-02T05:01:56.539Z,100.00
2023-08-02T05:07:00.183Z,100.00
2023-08-02T05:12:06.111Z,100.00
2023-08-02T05:17:09.778Z,100.00
2023-08-02T05:22:13.392Z,100.00
2023-08-02T05:27:18.380Z,100.00
2023-08-02T05:32:22.052Z,100.00
2023-08-02T05:37:25.685Z,100.00
2023-08-02T05:42:30.765Z,100.00
2023-08-02T05:47:34.960Z,100.00
2023-08-02T05:52:38.614Z,100.00
2023-08-02T05:57:43.621Z,100.00
2023-08-02T06:02:47.210Z,100.00
2023-08-02T06:07:50.997Z,100.00
2023-08-02T06:12:56.022Z,100.00
2023-08-02T06:17:59.802Z,85.77
2023-08-02T06:23:03.502Z,69.11
2023-08-02T06:28:08.648Z,66.32
2023-08-02T06:33:12.431Z,64.17
2023-08-02T06:38:16.302Z,61.68
2023-08-02T06:43:21.344Z,52.92
2023-08-02T06:48:27.073Z,61.30
2023-08-02T06:53:31.711Z,64.12
2023-08-02T06:58:36.776Z,62.66
2023-08-02T07:03:40.489Z,70.84
2023-08-02T07:08:45.262Z,75.37
2023-08-02T07:13:50.333Z,76.77
2023-08-02T07:18:54.023Z,86.97
2023-08-02T07:23:57.747Z,95.51
2023-08-02T07:29:03.131Z,89.68
2023-08-02T07:34:06.853Z,82.10
2023-08-02T07:39:10.522Z,84.71
2023-08-02T07:44:16.749Z,90.64
2023-08-02T07:49:20.425Z,92.88
2023-08-02T07:54:24.371Z,94.43
2023-08-02T07:59:29.690Z,80.58
2023-08-02T08:04:33.437Z,88.74
2023-08-02T08:09:37.250Z,78.72
2023-08-02T08:14:44.844Z,63.90
2023-08-02T08:19:48.775Z,75.67
2023-08-02T08:24:52.592Z,84.88
2023-08-02T08:29:57.736Z,82.44
2023-08-02T08:35:02.554Z,80.46
2023-08-02T08:40:14.511Z,70.08
2023-08-02T08:45:22.391Z,71.94
2023-08-02T08:51:01.994Z,76.17
2023-08-02T08:56:09.017Z,77.15
2023-08-02T09:01:14.513Z,84.88
2023-08-02T09:06:18.291Z,98.77
2023-08-02T09:11:22.247Z,98.42
2023-08-02T09:16:27.332Z,100.00
2023-08-02T09:21:31.498Z,99.66
2023-08-02T09:26:36.393Z,88.17
2023-08-02T09:31:41.920Z,83.09
2023-08-02T09:36:46.946Z,83.84
2023-08-02T09:42:00.084Z,79.09
2023-08-02T09:47:13.571Z,78.20
2023-08-02T09:52:28.447Z,83.48
2023-08-02T09:57:33.776Z,83.91
2023-08-02T10:02:39.554Z,83.28
2023-08-02T10:07:48.319Z,84.31
2023-08-02T10:12:57.932Z,82.55
2023-08-02T10:18:03.318Z,82.31
2023-08-02T10:23:08.394Z,80.75
2023-08-02T10:28:13.212Z,78.19
2023-08-02T10:33:22.208Z,81.06
2023-08-02T10:38:30.693Z,82.32
2023-08-02T10:43:34.366Z,85.22
2023-08-02T10:48:39.386Z,88.31
2023-08-02T10:54:56.436Z,84.51
2023-08-02T11:00:39.824Z,83.15
2023-08-02T11:05:52.263Z,84.93
2023-08-02T11:10:57.605Z,83.53
2023-08-02T11:16:06.548Z,81.39
2023-08-02T11:21:13.091Z,80.15
2023-08-02T11:26:19.020Z,80.35
2023-08-02T11:31:25.668Z,81.11
2023-08-02T11:36:35.349Z,83.43
2023-08-02T11:41:38.814Z,83.70
2023-08-02T11:46:42.776Z,82.70
2023-08-02T11:51:48.295Z,80.83
2023-08-02T11:56:52.405Z,79.75
2023-08-02T12:01:56.184Z,80.56
2023-08-02T12:07:02.737Z,82.08
2023-08-02T12:12:07.624Z,82.48
2023-08-02T12:17:18.153Z,81.75
2023-08-02T12:22:23.249Z,81.29
2023-08-02T12:27:27.158Z,80.96
2023-08-02T12:32:30.872Z,80.77
2023-08-02T12:37:37.475Z,81.94
2023-08-02T12:42:53.288Z,79.56
2023-08-02T12:48:06.785Z,79.87
2023-08-02T12:53:12.023Z,80.16
2023-08-02T12:58:15.806Z,79.37
2023-08-02T13:03:19.662Z,79.07
2023-08-02T13:08:25.673Z,74.85
2023-08-02T13:13:29.513Z,76.17
2023-08-02T13:18:43.480Z,72.17
2023-08-02T13:23:49.101Z,71.30
2023-08-02T13:28:52.979Z,69.97
2023-08-02T13:33:56.682Z,74.23
2023-08-02T13:39:01.763Z,70.50
2023-08-02T13:44:05.921Z,70.35
2023-08-02T13:49:09.579Z,69.96
2023-08-02T13:54:14.613Z,69.88
2023-08-02T13:59:18.409Z,69.47
2023-08-02T14:04:22.176Z,68.76
2023-08-02T14:09:27.796Z,68.10
2023-08-02T14:14:31.452Z,69.91
2023-08-02T14:19:35.089Z,72.29
2023-08-02T14:24:40.328Z,74.38
2023-08-02T14:29:44.018Z,75.19
2023-08-02T14:34:47.709Z,78.08
2023-08-02T14:39:52.826Z,75.88
2023-08-02T14:44:56.622Z,74.83
2023-08-02T14:50:00.434Z,74.80
2023-08-02T14:55:06.128Z,77.65
2023-08-02T15:00:11.117Z,79.18
2023-08-02T15:05:14.817Z,78.32
2023-08-02T15:10:20.749Z,76.59
2023-08-02T15:15:24.598Z,77.49
2023-08-02T15:20:28.340Z,78.90
2023-08-02T15:25:33.849Z,78.16
2023-08-02T15:30:37.552Z,79.25
2023-08-02T15:35:43.540Z,79.99
2023-08-02T15:40:48.873Z,81.43
2023-08-02T15:45:52.571Z,82.38
2023-08-02T15:50:57.131Z,82.04
2023-08-02T15:56:02.314Z,80.56
2023-08-02T16:01:06.237Z,81.73
2023-08-02T16:06:10.849Z,84.09
2023-08-02T16:11:16.047Z,85.04
2023-08-02T16:16:19.906Z,85.38
2023-08-02T16:21:25.577Z,85.80
2023-08-02T16:26:42.241Z,85.55
2023-08-02T16:31:50.087Z,85.72
2023-08-02T16:36:53.860Z,86.25
2023-08-02T16:41:58.988Z,86.33
2023-08-02T16:47:04.868Z,85.62
2023-08-02T16:52:09.839Z,86.40
2023-08-02T16:57:14.952Z,86.89
2023-08-02T17:02:19.913Z,87.52
2023-08-02T17:07:23.624Z,88.31
2023-08-02T17:12:28.759Z,88.15
2023-08-02T17:17:36.003Z,88.03
2023-08-02T17:22:39.748Z,88.36
2023-08-02T17:27:46.917Z,88.91
2023-08-02T17:32:50.948Z,89.06
2023-08-02T17:37:55.392Z,90.76
2023-08-02T17:43:00.558Z,91.47
2023-08-02T17:48:08.685Z,92.08
2023-08-02T17:53:12.682Z,92.55
2023-08-02T17:58:17.863Z,91.83
2023-08-02T18:03:22.222Z,92.59
2023-08-02T18:08:26.022Z,92.39
2023-08-02T18:13:31.987Z,92.71
2023-08-02T18:18:39.647Z,93.28
2023-08-02T18:23:46.540Z,94.10
2023-08-02T18:28:57.735Z,95.01
2023-08-02T18:34:03.696Z,95.66
2023-08-02T18:39:09.239Z,95.44
2023-08-02T18:44:14.363Z,96.03
2023-08-02T18:49:18.147Z,96.88
2023-08-02T18:54:22.036Z,98.08
2023-08-02T18:59:27.083Z,98.72
2023-08-02T19:04:30.950Z,96.81
2023-08-02T19:09:35.504Z,93.80
2023-08-02T19:14:47.382Z,88.31
2023-08-02T19:19:51.877Z,83.07
2023-08-02T19:24:55.634Z,77.50
2023-08-02T19:30:01.421Z,73.46
2023-08-02T19:35:11.392Z,71.71
2023-08-02T19:40:15.390Z,70.88
2023-08-02T19:45:23.008Z,71.06
2023-08-02T19:50:26.784Z,70.16
2023-08-02T19:55:30.678Z,70.38
2023-08-02T20:00:36.048Z,70.29
2023-08-02T20:06:01.126Z,70.60
2023-08-02T20:11:07.788Z,70.76
2023-08-02T20:16:19.581Z,71.03
2023-08-02T20:21:24.840Z,71.08
2023-08-02T20:26:29.271Z,71.18
2023-08-02T20:31:38.100Z,71.86
2023-08-02T20:36:42.740Z,72.40
2023-08-02T20:41:48.963Z,72.33
2023-08-02T20:46:54.246Z,72.72
2023-08-02T20:52:02.676Z,72.88
2023-08-02T20:57:09.403Z,72.74
2023-08-02T21:02:20.155Z,72.91
2023-08-02T21:07:36.460Z,74.15
2023-08-02T21:12:40.494Z,74.27
2023-08-02T21:17:46.535Z,74.64
2023-08-02T21:22:50.227Z,74.33
2023-08-02T21:27:53.996Z,74.61
2023-08-02T21:32:59.047Z,74.73
2023-08-02T21:38:02.960Z,74.63
2023-08-02T21:43:07.082Z,74.98
2023-08-02T21:48:14.406Z,75.57
2023-08-02T21:53:22.239Z,75.71
2023-08-02T21:58:31.016Z,76.20
2023-08-02T22:03:39.975Z,77.19
2023-08-02T22:08:44.808Z,76.91
2023-08-02T22:13:49.280Z,77.35
2023-08-02T22:18:54.475Z,77.78
2023-08-02T22:23:58.265Z,76.97
2023-08-02T22:29:01.957Z,77.28
2023-08-02T22:34:07.043Z,76.81
2023-08-02T22:39:10.688Z,77.00
2023-08-02T22:44:14.409Z,76.78
2023-08-02T22:50:19.392Z,76.17
2023-08-02T22:54:43.390Z,75.40
2023-08-02T22:59:47.976Z,75.24
2023-08-02T23:04:54.060Z,75.28
2023-08-02T23:10:01.511Z,75.99
2023-08-02T23:15:06.142Z,76.07
2023-08-02T23:20:38.268Z,75.93
2023-08-02T23:25:41.965Z,76.14
2023-08-02T23:30:45.715Z,76.15
2023-08-02T23:35:50.827Z,76.14
2023-08-02T23:40:54.528Z,76.93
2023-08-02T23:45:58.317Z,76.20
2023-08-02T23:51:03.401Z,75.94
2023-08-02T23:56:07.063Z,75.95
